Time;durP1;ratioP1;P1;durP2;ratioP2;P2;SDS_P1;SDS_P2;PMS_P1;PMS_P2;Temp;Humidity;BMP_temperature;BMP_pressure;BME280_temperature;BME280_humidity;BME280_pressure;Samples;Min_cycle;Max_cycle;Signal;HPM_P1;HPM_P2
2022/07/10 00:00:15;;;;;;;8.43;1.50;;;;;;;-146.64;100.00;38576.53;5088461;28;20024;-76
2022/07/10 00:02:42;;;;;;;4.30;1.40;;;;;;;-146.64;100.00;38576.53;5089893;28;20030;-77
2022/07/10 00:05:09;;;;;;;11.25;1.92;;;;;;;-146.64;100.00;38502.84;5085916;28;20039;-77
2022/07/10 00:07:35;;;;;;;6.90;1.50;;;;;;;-146.64;100.00;38531.50;5094441;28;20020;-75
2022/07/10 00:10:01;;;;;;;12.90;1.87;;;;;;;-146.64;100.00;38605.16;5089326;28;20032;-76
2022/07/10 00:12:26;;;;;;;7.60;1.92;;;;;;;-146.64;100.00;38564.25;5109507;28;20036;-76
2022/07/10 00:14:52;;;;;;;9.20;1.60;;;;;;;-146.64;100.00;38556.06;5089536;28;20058;-76
2022/07/10 00:17:17;;;;;;;3.43;1.43;;;;;;;-146.64;100.00;38578.56;5105243;28;20383;-76
2022/07/10 00:19:43;;;;;;;8.50;1.53;;;;;;;-146.64;100.00;38529.47;5091238;28;20051;-76
2022/07/10 00:22:08;;;;;;;4.77;1.17;;;;;;;-146.64;100.00;38560.16;5109122;28;20028;-75
2022/07/10 00:24:33;;;;;;;6.40;1.80;;;;;;;-146.64;100.00;38556.06;5090348;28;20148;-75
2022/07/10 00:26:59;;;;;;;3.53;1.20;;;;;;;-146.64;100.00;38621.53;5110084;28;20054;-75
2022/07/10 00:29:24;;;;;;;5.13;1.60;;;;;;;-146.64;100.00;38672.69;5088669;28;20368;-75
2022/07/10 00:31:50;;;;;;;10.53;1.57;;;;;;;-146.64;100.00;38760.69;5068669;28;20488;-75
2022/07/10 00:34:15;;;;;;;7.33;2.37;;;;;;;-146.64;100.00;38838.44;5091420;28;20065;-75
2022/07/10 00:36:40;;;;;;;6.03;1.53;;;;;;;-146.64;100.00;38797.53;5110062;28;20028;-75
2022/07/10 00:39:06;;;;;;;6.70;1.50;;;;;;;-146.64;100.00;39057.41;5090570;28;20106;-74
2022/07/10 00:41:31;;;;;;;5.63;1.40;;;;;;;-146.64;100.00;39204.75;5104136;28;20054;-77
2022/07/10 00:44:00;;;;;;;7.37;1.50;;;;;;;-146.64;100.00;39174.06;5107388;28;20161;-76
2022/07/10 00:46:27;;;;;;;10.23;1.85;;;;;;;-146.64;100.00;39276.38;5083703;28;20439;-75
2022/07/10 00:48:53;;;;;;;5.30;1.45;;;;;;;-146.64;100.00;39202.72;5088567;28;20387;-75
2022/07/10 00:51:21;;;;;;;3.38;1.55;;;;;;;-146.64;100.00;39081.97;5081490;28;20110;-75
2022/07/10 00:53:49;;;;;;;8.18;1.25;;;;;;;-146.64;100.00;39257.97;5071135;28;20043;-76
2022/07/10 00:56:19;;;;;;;9.52;1.50;;;;;;;-146.64;100.00;39208.84;5087534;28;20047;-75
2022/07/10 00:58:45;;;;;;;5.32;1.42;;;;;;;-146.64;100.00;39448.31;5069381;28;20114;-74
2022/07/10 01:01:11;;;;;;;6.23;1.60;;;;;;;-146.64;100.00;39358.25;5077442;28;20444;-77
2022/07/10 01:03:36;;;;;;;6.73;1.40;;;;;;;-146.64;100.00;39595.66;5091041;28;20027;-76
2022/07/10 01:06:02;;;;;;;8.63;1.50;;;;;;;-146.64;100.00;39796.25;5089472;28;20061;-74
2022/07/10 01:08:28;;;;;;;9.88;1.45;;;;;;;-146.64;100.00;39812.63;5075605;28;20443;-76
2022/07/10 01:10:53;;;;;;;4.73;1.77;;;;;;;-146.64;100.00;40029.59;5092320;28;20122;-75
2022/07/10 01:13:19;;;;;;;3.40;1.43;;;;;;;-146.64;100.00;40267.06;5109976;28;20102;-77
2022/07/10 01:15:45;;;;;;;5.03;1.70;;;;;;;-146.64;100.00;40299.81;5091857;28;20042;-75
2022/07/10 01:18:11;;;;;;;7.63;2.00;;;;;;;-146.64;100.00;41098.25;5075643;28;20114;-76
2022/07/10 01:20:36;;;;;;;10.40;1.43;;;;;;;-146.64;100.00;40940.59;5072565;28;20028;-77
2022/07/10 01:23:02;;;;;;;8.43;2.17;;;;;;;-146.64;100.00;41262.06;5074032;28;20423;-76
2022/07/10 01:25:28;;;;;;;9.67;2.80;;;;;;;-146.64;100.00;41528.28;5077681;28;20491;-76
2022/07/10 01:27:53;;;;;;;9.67;2.40;;;;;;;-146.64;100.00;42234.81;5093442;28;20103;-76
2022/07/10 01:30:19;;;;;;;6.20;2.07;;;;;;;-146.64;100.00;41663.44;5071908;28;20043;-76
2022/07/10 01:32:45;;;;;;;17.10;2.30;;;;;;;-146.64;100.00;42038.19;5108750;28;20387;-76
2022/07/10 01:35:10;;;;;;;8.73;2.57;;;;;;;-146.64;100.00;42691.56;5088104;28;20084;-76
2022/07/10 01:37:36;;;;;;;8.87;2.30;;;;;;;-146.64;100.00;43679.00;5092331;28;20034;-76
2022/07/10 01:40:02;;;;;;;8.93;1.90;;;;;;;-146.64;100.00;44949.50;5092000;28;20031;-76
2022/07/10 01:42:27;;;;;;;5.03;2.10;;;;;;;-146.64;100.00;46142.50;5072873;28;20486;-76
2022/07/10 01:44:53;;;;;;;4.43;1.67;;;;;;;-146.64;100.00;46724.78;5076213;28;20108;-77
2022/07/10 01:47:18;;;;;;;5.72;1.63;;;;;;;-146.64;100.00;46210.16;5109559;28;20414;-75
2022/07/10 01:49:44;;;;;;;6.67;2.30;;;;;;;-146.64;100.00;45101.16;5110849;28;20020;-76
2022/07/10 01:52:10;;;;;;;4.80;1.57;;;;;;;-146.64;100.00;49038.38;5091141;28;20054;-75
2022/07/10 01:54:35;;;;;;;6.83;1.43;;;;;;;-146.64;100.00;48710.13;5109389;28;20047;-74
2022/07/10 01:57:01;;;;;;;6.10;1.40;;;;;;;-146.64;100.00;50088.97;5088290;28;20035;-77
2022/07/10 01:59:26;;;;;;;7.50;1.93;;;;;;;-146.64;100.00;52149.91;5063518;28;20038;-77
2022/07/10 02:01:51;;;;;;;10.37;1.70;;;;;;;-146.64;100.00;50975.63;5112033;28;20394;-76
2022/07/10 02:07:01;;;;;;;6.45;1.73;;;;;;;-146.64;100.00;51599.66;5108844;28;20055;-75
2022/07/10 02:09:26;;;;;;;3.73;1.30;;;;;;;-146.64;100.00;50831.94;5109562;28;20023;-76
2022/07/10 02:11:51;;;;;;;3.53;1.30;;;;;;;-146.64;100.00;52675.59;5111758;28;20165;-76
2022/07/10 02:14:17;;;;;;;7.93;1.57;;;;;;;-146.64;100.00;53464.22;5110130;28;20520;-76
2022/07/10 02:16:44;;;;;;;6.13;1.67;;;;;;;-146.64;100.00;51037.19;5092673;28;20038;-76
2022/07/10 02:19:09;;;;;;;6.15;1.45;;;;;;;-146.64;100.00;57146.59;5090809;28;20035;-76
2022/07/10 02:21:35;;;;;;;5.07;1.47;;;;;;;-146.64;100.00;58725.81;5074334;28;20036;-76
2022/07/10 02:24:00;;;;;;;7.10;1.30;;;;;;;-146.64;100.00;55568.03;5110418;28;20110;-75
2022/07/10 02:26:25;;;;;;;4.57;1.50;;;;;;;-146.64;100.00;56883.47;5073562;28;20031;-76
2022/07/10 02:28:51;;;;;;;9.33;1.73;;;;;;;-146.64;100.00;54515.97;5110754;28;20038;-76
2022/07/10 02:31:16;;;;;;;7.20;1.40;;;;;;;-146.64;100.00;57936.13;5074226;28;20084;-76
2022/07/10 02:33:42;;;;;;;9.37;1.60;;;;;;;-146.64;100.00;57936.13;5108253;28;20020;-76
2022/07/10 02:36:07;;;;;;;5.47;1.37;;;;;;;-146.64;100.00;58462.56;5089395;28;20447;-76
2022/07/10 02:38:32;;;;;;;4.70;1.30;;;;;;;-146.64;100.00;61622.69;5092381;28;20032;-76
2022/07/10 02:40:58;;;;;;;3.87;1.30;;;;;;;-146.64;100.00;58989.09;5108756;28;20031;-76
2022/07/10 02:43:23;;;;;;;9.00;1.90;;;;;;;-146.64;100.00;64258.03;5110159;28;20097;-76
2022/07/10 02:45:48;;;;;;;8.13;1.47;;;;;;;-146.64;100.00;63730.81;5074028;28;20122;-77
2022/07/10 02:48:15;;;;;;;3.60;1.33;;;;;;;-146.64;100.00;63467.22;5088214;28;20028;-76
2022/07/10 02:50:40;;;;;;;8.23;1.92;;;;;;;-146.64;100.00;60569.03;5072275;28;20050;-76
2022/07/10 02:53:05;;;;;;;10.80;2.23;;;;;;;-146.64;100.00;61095.81;5109545;28;20027;-77
2022/07/10 02:55:31;;;;;;;9.43;1.57;;;;;;;-146.64;100.00;60832.41;5089950;28;21078;-76
2022/07/10 02:57:58;;;;;;;6.40;1.30;;;;;;;-146.64;100.00;60832.41;5108536;28;20019;-76
2022/07/10 03:00:24;;;;;;;4.90;1.40;;;;;;;-146.64;100.00;66103.78;5092075;28;20027;-76
2022/07/10 03:02:49;;;;;;;6.33;1.63;;;;;;;-146.64;100.00;65312.66;5092112;28;20046;-76
2022/07/10 03:05:14;;;;;;;5.30;1.50;;;;;;;-146.64;100.00;63203.69;5090963;28;20091;-76
2022/07/10 03:07:40;;;;;;;5.70;1.53;;;;;;;-146.64;100.00;64258.03;5109195;28;20341;-76
2022/07/10 03:10:05;;;;;;;1.93;1.33;;;;;;;-146.64;100.00;61886.13;5109917;28;20376;-75
2022/07/10 03:12:31;;;;;;;6.33;1.60;;;;;;;-146.64;100.00;64521.66;5091158;28;20768;-76
2022/07/10 03:14:56;;;;;;;5.00;1.40;;;;;;;-146.64;100.00;63467.22;5088260;28;20032;-76
2022/07/10 03:17:21;;;;;;;7.73;1.30;;;;;;;-146.64;100.00;66367.56;5091672;28;20039;-76
2022/07/10 03:19:47;;;;;;;2.73;1.20;;;;;;;-146.64;100.00;60305.66;5074079;28;20031;-76
2022/07/10 03:22:12;;;;;;;12.93;2.17;;;;;;;-146.64;100.00;57936.13;5091604;28;20028;-75
2022/07/10 03:24:38;;;;;;;3.47;1.40;;;;;;;-146.64;100.00;55305.00;5109624;28;20024;-76
2022/07/10 03:27:05;;;;;;;7.40;1.60;;;;;;;-146.64;100.00;53990.06;5072452;28;20471;-77
2022/07/10 03:29:30;;;;;;;8.57;1.58;;;;;;;-146.64;100.00;49424.09;5110280;28;20028;-75
2022/07/10 03:31:55;;;;;;;8.83;1.63;;;;;;;-146.64;100.00;46380.34;5101521;28;20429;-75
2022/07/10 03:34:21;;;;;;;6.30;1.43;;;;;;;-146.64;100.00;49021.97;5089876;28;20133;-76
2022/07/10 03:36:46;;;;;;;5.03;1.27;;;;;;;-146.64;100.00;45761.19;5064455;28;20027;-76
2022/07/10 03:39:11;;;;;;;5.80;1.07;;;;;;;-146.64;100.00;44875.72;5108064;28;20058;-76
2022/07/10 03:41:37;;;;;;;4.40;1.37;;;;;;;-146.64;100.00;43687.19;5091733;28;20032;-76
2022/07/10 03:44:02;;;;;;;9.47;1.30;;;;;;;-146.64;100.00;43218.03;5107215;28;20553;-76
2022/07/10 03:46:27;;;;;;;7.73;1.70;;;;;;;-146.64;100.00;43185.25;5098952;28;20031;-76
2022/07/10 03:48:53;;;;;;;6.93;1.20;;;;;;;-146.64;100.00;44191.25;5089705;28;20034;-76
2022/07/10 03:51:19;;;;;;;3.90;1.13;;;;;;;-146.64;100.00;43154.53;5074157;28;20024;-76
2022/07/10 03:53:45;;;;;;;5.90;1.50;;;;;;;-146.64;100.00;41980.84;5109498;28;20080;-76
2022/07/10 03:57:53;;;;;;;6.37;2.03;;;;;;;-146.64;100.00;42173.38;5107442;28;20076;-76
2022/07/10 03:58:55;;;;;;;6.78;1.60;;;;;;;-146.64;100.00;41393.13;5093390;28;20618;-76
2022/07/10 04:01:20;;;;;;;5.40;1.30;;;;;;;-146.64;100.00;42083.25;5074234;28;20071;-76
2022/07/10 04:03:46;;;;;;;3.50;1.50;;;;;;;-146.64;100.00;41892.78;5108864;28;20100;-74
2022/07/10 04:06:11;;;;;;;5.50;2.13;;;;;;;-146.64;100.00;41786.28;5105837;28;20164;-76
2022/07/10 04:08:37;;;;;;;2.63;1.47;;;;;;;-146.64;100.00;42302.41;5109406;28;20063;-76
2022/07/10 04:11:02;;;;;;;5.30;1.50;;;;;;;-146.64;100.00;41792.44;5090393;28;20510;-76
2022/07/10 04:13:27;;;;;;;8.97;2.10;;;;;;;-146.64;100.00;41462.75;5103460;28;20020;-77
2022/07/10 04:15:53;;;;;;;9.50;1.53;;;;;;;-146.64;100.00;41284.59;5105631;28;20028;-75
2022/07/10 04:18:18;;;;;;;8.10;1.47;;;;;;;-146.64;100.00;40703.13;5089960;28;20028;-76
2022/07/10 04:20:43;;;;;;;3.50;1.17;;;;;;;-146.64;100.00;40748.16;5089289;28;20107;-76
2022/07/10 04:23:09;;;;;;;5.83;1.37;;;;;;;-146.64;100.00;40885.31;5091299;28;20038;-77
2022/07/10 04:25:34;;;;;;;8.20;1.70;;;;;;;-146.64;100.00;40357.13;5089987;28;20067;-77
2022/07/10 04:27:59;;;;;;;5.10;1.20;;;;;;;-146.64;100.00;41268.22;5107121;28;20047;-76
2022/07/10 04:30:25;;;;;;;4.77;1.27;;;;;;;-146.64;100.00;41724.84;5072895;28;20112;-76
2022/07/10 04:32:50;;;;;;;13.10;2.30;;;;;;;-146.64;100.00;40799.34;5088362;28;20115;-76
2022/07/10 04:35:15;;;;;;;5.73;1.97;;;;;;;-146.64;100.00;41194.50;5089220;28;20048;-75
2022/07/10 04:37:41;;;;;;;8.27;1.60;;;;;;;-146.64;100.00;40971.31;5107365;28;20088;-77
2022/07/10 04:40:07;;;;;;;1.90;0.90;;;;;;;-146.64;100.00;40742.00;5089771;28;20036;-75
2022/07/10 04:42:32;;;;;;;6.60;2.30;;;;;;;-146.64;100.00;40885.31;5087778;28;20062;-76
2022/07/10 04:44:57;;;;;;;5.67;1.63;;;;;;;-146.64;100.00;40408.31;5077184;28;20074;-76
2022/07/10 04:47:23;;;;;;;6.00;2.10;;;;;;;-146.64;100.00;40373.50;5093318;28;20068;-77
2022/07/10 04:49:48;;;;;;;5.77;1.63;;;;;;;-146.64;100.00;40709.25;5083092;28;20035;-75
2022/07/10 04:52:13;;;;;;;3.77;1.50;;;;;;;-146.64;100.00;40205.66;5089297;28;20038;-77
2022/07/10 04:54:39;;;;;;;2.40;1.43;;;;;;;-146.64;100.00;39720.53;5110586;28;20072;-76
2022/07/10 04:57:04;;;;;;;5.67;1.60;;;;;;;-146.64;100.00;39822.88;5110596;28;20092;-76
2022/07/10 04:59:29;;;;;;;8.03;1.50;;;;;;;-146.64;100.00;39386.91;5082852;28;20110;-75
2022/07/10 05:01:55;;;;;;;3.97;1.43;;;;;;;-146.64;100.00;39241.59;5110121;28;20039;-76
2022/07/10 05:04:20;;;;;;;9.73;1.63;;;;;;;-146.64;100.00;39253.88;5105777;28;20088;-76
2022/07/10 05:06:45;;;;;;;4.77;2.00;;;;;;;-146.64;100.00;39227.28;5106450;28;20034;-76
2022/07/10 05:09:11;;;;;;;9.53;2.20;;;;;;;-146.64;100.00;38934.63;5112348;28;20141;-76
2022/07/10 05:11:36;;;;;;;4.23;1.70;;;;;;;-146.64;100.00;38734.09;5106924;28;20032;-76
2022/07/10 05:14:01;;;;;;;9.40;2.20;;;;;;;-146.64;100.00;38662.47;5090372;28;20039;-76
2022/07/10 05:16:27;;;;;;;10.90;2.00;;;;;;;-146.64;100.00;38903.94;5086866;28;20040;-76
2022/07/10 05:18:52;;;;;;;14.83;2.37;;;;;;;-146.64;100.00;38466.03;5104930;28;20031;-76
2022/07/10 05:21:17;;;;;;;5.40;1.73;;;;;;;-146.64;100.00;38191.84;5090023;28;20042;-77
2022/07/10 05:23:43;;;;;;;11.37;2.10;;;;;;;-146.64;100.00;38163.22;5083184;28;20444;-76
2022/07/10 05:26:08;;;;;;;9.90;2.20;;;;;;;-146.64;100.00;38157.06;5071577;28;20038;-76
2022/07/10 05:28:33;;;;;;;8.83;2.60;;;;;;;-146.64;100.00;38110.00;5085455;28;20052;-77
2022/07/10 05:30:59;;;;;;;5.20;1.87;;;;;;;-146.64;100.00;37870.63;5083603;28;20031;-76
2022/07/10 05:33:26;;;;;;;7.33;2.27;;;;;;;-146.64;100.00;37766.31;5102434;28;20084;-76
2022/07/10 05:35:51;;;;;;;7.88;1.85;;;;;;;-146.64;100.00;37508.53;5094284;28;20066;-76
2022/07/10 05:38:17;;;;;;;7.53;2.30;;;;;;;-146.64;100.00;37263.06;5093814;28;20078;-76
2022/07/10 05:40:42;;;;;;;11.13;2.43;;;;;;;-146.64;100.00;37111.72;5091042;28;20019;-76
2022/07/10 05:43:09;;;;;;;6.53;2.27;;;;;;;-146.64;100.00;37038.06;5062521;28;20031;-76
2022/07/10 05:45:35;;;;;;;4.25;1.67;;;;;;;-146.64;100.00;37066.72;5081976;28;20067;-74
2022/07/10 05:48:00;;;;;;;7.70;2.23;;;;;;;-146.64;100.00;37072.84;5092489;28;20054;-76
2022/07/10 05:50:25;;;;;;;6.57;1.40;;;;;;;-146.64;100.00;37017.63;5087626;28;20076;-77
2022/07/10 05:52:51;;;;;;;4.87;1.33;;;;;;;-146.64;100.00;37177.16;5109252;28;20031;-77
2022/07/10 05:55:16;;;;;;;7.83;2.13;;;;;;;-146.64;100.00;37179.22;5085398;28;20039;-76
2022/07/10 05:57:41;;;;;;;6.57;1.60;;;;;;;-146.64;100.00;37085.13;5087795;28;20023;-76
2022/07/10 06:00:08;;;;;;;8.90;1.47;;;;;;;-146.64;100.00;37027.84;5086372;28;20036;-76
2022/07/10 06:02:33;;;;;;;4.78;1.70;;;;;;;-146.64;100.00;37119.88;5080109;28;21048;-76
2022/07/10 06:04:59;;;;;;;3.70;1.27;;;;;;;-146.64;100.00;37128.06;5089370;28;20431;-76
2022/07/10 06:07:25;;;;;;;6.70;1.50;;;;;;;-146.64;100.00;36978.75;5090892;28;20023;-76
2022/07/10 06:09:51;;;;;;;6.50;1.83;;;;;;;-146.64;100.00;37258.97;5093945;28;20027;-76
2022/07/10 06:12:16;;;;;;;7.43;2.17;;;;;;;-146.64;100.00;37353.06;5111590;28;20084;-76
2022/07/10 06:14:42;;;;;;;6.40;1.83;;;;;;;-146.64;100.00;37367.41;5086252;28;20436;-77
2022/07/10 06:17:07;;;;;;;6.07;1.70;;;;;;;-146.64;100.00;37394.00;5108253;28;20486;-76
2022/07/10 06:19:33;;;;;;;7.87;1.67;;;;;;;-146.64;100.00;37410.34;5110402;28;20276;-76
2022/07/10 06:24:42;;;;;;;6.45;1.65;;;;;;;-146.64;100.00;37353.06;5101262;28;20078;-75
2022/07/10 06:27:07;;;;;;;3.87;1.30;;;;;;;-146.64;100.00;37312.16;5106626;28;20058;-75
2022/07/10 06:29:32;;;;;;;8.30;1.40;;;;;;;-146.64;100.00;37312.16;5092447;28;20545;-75
2022/07/10 06:31:58;;;;;;;3.53;1.30;;;;;;;-146.64;100.00;37361.25;5105798;28;20118;-75
2022/07/10 06:34:23;;;;;;;4.50;1.23;;;;;;;-146.64;100.00;37263.06;5093021;28;20160;-75
2022/07/10 06:36:48;;;;;;;6.27;1.60;;;;;;;-146.64;100.00;37348.97;5091802;28;20068;-75
2022/07/10 06:39:14;;;;;;;6.40;1.37;;;;;;;-146.64;100.00;37400.13;5108919;28;20087;-75
2022/07/10 06:41:39;;;;;;;5.07;2.10;;;;;;;-146.64;100.00;37389.91;5090141;28;20173;-76
2022/07/10 06:44:05;;;;;;;3.13;1.60;;;;;;;-146.64;100.00;37389.91;5085538;28;20054;-76
2022/07/10 06:46:31;;;;;;;4.37;1.87;;;;;;;-146.64;100.00;37373.53;5090692;28;20027;-75
2022/07/10 06:48:56;;;;;;;7.22;1.52;;;;;;;-146.64;100.00;37291.72;5104582;28;20459;-76
2022/07/10 06:51:22;;;;;;;11.33;1.63;;;;;;;-146.64;100.00;37422.63;5092197;28;20034;-75
2022/07/10 06:53:48;;;;;;;8.57;1.57;;;;;;;-146.64;100.00;37463.53;5099534;28;20049;-75
2022/07/10 06:56:15;;;;;;;4.20;1.37;;;;;;;-146.64;100.00;37414.44;5081837;28;20088;-76
2022/07/10 06:58:40;;;;;;;5.75;1.52;;;;;;;-146.64;100.00;37332.63;5085687;28;20031;-75
2022/07/10 07:01:06;;;;;;;9.33;1.73;;;;;;;-146.64;100.00;37340.81;5085093;28;20491;-75
2022/07/10 07:03:31;;;;;;;6.53;1.43;;;;;;;-146.64;100.00;37336.72;5087005;28;20122;-75
2022/07/10 07:05:56;;;;;;;3.53;1.23;;;;;;;-146.64;100.00;37387.84;5074775;28;20115;-76
2022/07/10 07:08:22;;;;;;;8.77;1.73;;;;;;;-146.64;100.00;37449.22;5110550;28;20043;-75
2022/07/10 07:10:47;;;;;;;2.50;1.20;;;;;;;-146.64;100.00;37451.25;5091249;28;20095;-76
2022/07/10 07:13:12;;;;;;;8.93;1.40;;;;;;;-146.64;100.00;37361.25;5090728;28;20058;-75
2022/07/10 07:15:41;;;;;;;6.63;1.10;;;;;;;-146.64;100.00;37379.66;5091596;28;20557;-75
2022/07/10 07:18:08;;;;;;;6.53;1.55;;;;;;;-146.64;100.00;37408.31;5092584;28;20540;-75
2022/07/10 07:23:18;;;;;;;4.70;1.05;;;;;;;-146.64;100.00;37565.81;5094814;28;20061;-75
2022/07/10 07:25:46;;;;;;;5.10;1.60;;;;;;;-146.64;100.00;37473.75;5092500;28;20402;-75
2022/07/10 07:28:15;;;;;;;8.07;1.40;;;;;;;-146.64;100.00;37406.25;5075470;28;20490;-75
2022/07/10 07:30:40;;;;;;;4.00;1.90;;;;;;;-146.64;100.00;37467.63;5092658;28;20155;-75
2022/07/10 07:33:06;;;;;;;8.93;1.47;;;;;;;-146.64;100.00;37477.84;5075136;28;20537;-75
2022/07/10 07:35:31;;;;;;;3.83;1.23;;;;;;;-146.64;100.00;37443.09;5075319;28;20031;-75
2022/07/10 07:37:56;;;;;;;3.50;1.30;;;;;;;-146.64;100.00;37533.09;5092207;28;20026;-74
2022/07/10 07:40:23;;;;;;;4.63;1.20;;;;;;;-146.64;100.00;37565.81;5092265;28;20027;-75
2022/07/10 07:42:53;;;;;;;10.00;1.52;;;;;;;-146.64;100.00;37520.81;5092388;28;20508;-75
2022/07/10 07:45:18;;;;;;;7.03;1.70;;;;;;;-146.64;100.00;37451.25;5091935;28;20039;-75
2022/07/10 07:47:59;;;;;;;3.20;1.40;;;;;;;-146.64;100.00;37416.50;5091860;28;20043;-75
2022/07/10 07:50:29;;;;;;;4.65;1.80;;;;;;;-146.64;100.00;37443.09;5092200;28;20436;-75
2022/07/10 07:52:55;;;;;;;6.28;1.73;;;;;;;-146.64;100.00;37463.53;5092174;28;20028;-75
2022/07/10 07:55:21;;;;;;;7.30;1.30;;;;;;;-146.64;100.00;37520.81;5091942;28;20084;-75
2022/07/10 07:57:46;;;;;;;10.80;1.58;;;;;;;-146.64;100.00;37244.66;5092141;28;20035;-76
2022/07/10 08:00:13;;;;;;;5.60;1.23;;;;;;;-146.64;100.00;37455.34;5091685;28;20032;-74
2022/07/10 08:02:38;;;;;;;6.72;1.33;;;;;;;-146.64;99.87;37375.56;5091979;28;20035;-76
2022/07/10 08:05:04;;;;;;;3.90;1.03;;;;;;;-146.64;97.48;37408.31;5074757;28;20050;-75
2022/07/10 08:07:37;;;;;;;3.45;1.20;;;;;;;-146.64;96.51;37351.03;5091908;28;20038;-76
2022/07/10 08:10:03;;;;;;;5.93;1.60;;;;;;;-146.64;95.85;37357.16;5110045;28;20494;-75
2022/07/10 08:12:29;;;;;;;5.78;1.55;;;;;;;-146.64;96.21;37361.25;5091971;28;20475;-76
2022/07/10 08:14:54;;;;;;;6.47;1.60;;;;;;;-146.64;96.35;37361.25;5091686;28;20089;-75
2022/07/10 08:17:19;;;;;;;2.97;1.53;;;;;;;-146.64;96.61;37234.44;5092582;28;20418;-76
2022/07/10 08:19:44;;;;;;;5.40;1.27;;;;;;;-146.64;96.62;37361.25;5092341;28;20024;-75
2022/07/10 08:22:10;;;;;;;3.93;1.30;;;;;;;-146.64;97.84;37293.75;5106180;28;20467;-75
2022/07/10 08:24:36;;;;;;;3.30;1.35;;;;;;;-146.64;96.72;37314.22;5104890;28;20023;-76
2022/07/10 08:27:01;;;;;;;3.03;1.33;;;;;;;-146.64;96.25;37353.06;5106368;28;20084;-75
2022/07/10 08:29:26;;;;;;;4.13;1.20;;;;;;;-146.64;96.46;37434.91;5108137;28;20110;-76
2022/07/10 08:31:52;;;;;;;7.43;1.90;;;;;;;-146.64;97.61;37439.00;5085593;28;20038;-75
2022/07/10 08:34:17;;;;;;;9.80;1.37;;;;;;;-146.64;97.59;37404.22;5088362;28;20470;-75
2022/07/10 08:36:42;;;;;;;3.37;1.17;;;;;;;-146.64;97.94;37383.75;5089913;28;20035;-75
2022/07/10 08:39:08;;;;;;;4.37;1.60;;;;;;;-146.64;98.22;37359.22;5082534;28;20032;-76
2022/07/10 08:41:34;;;;;;;4.80;1.80;;;;;;;-146.64;98.26;37263.06;5072118;28;20028;-75
2022/07/10 08:44:00;;;;;;;;;;;;;;;-146.64;97.56;37389.91;5088309;28;20032;-76
2022/07/10 08:46:25;;;;;;;3.83;1.20;;;;;;;-146.64;95.93;37406.25;5083625;28;20151;-76
2022/07/10 08:48:53;;;;;;;2.40;1.13;;;;;;;-146.64;95.89;37332.63;5089854;28;20545;-75
2022/07/10 08:51:24;;;;;;;6.22;1.33;;;;;;;-146.64;95.21;37250.81;5088627;28;20027;-75
2022/07/10 08:53:51;;;;;;;3.80;1.30;;;;;;;-146.64;94.02;37258.97;5079740;28;20024;-75
2022/07/10 08:56:16;;;;;;;3.80;1.40;;;;;;;-146.64;92.97;37303.97;5087326;28;20091;-75
2022/07/10 08:58:42;;;;;;;5.70;1.50;;;;;;;-146.64;91.28;37189.44;5104642;28;20035;-75
2022/07/10 09:01:07;;;;;;;9.03;2.20;;;;;;;-146.64;90.79;37058.53;5087405;28;20020;-74
2022/07/10 09:03:33;;;;;;;10.80;2.30;;;;;;;-146.64;89.40;37111.72;5088642;28;20023;-75
2022/07/10 09:05:58;;;;;;;6.83;1.40;;;;;;;-146.64;89.27;37078.97;5107650;28;20231;-76
2022/07/10 09:08:26;;;;;;;6.93;1.50;;;;;;;-146.64;87.71;37226.25;5078787;28;20028;-75
2022/07/10 09:10:52;;;;;;;5.78;1.70;;;;;;;-146.64;89.28;37109.66;5089817;28;20808;-75
2022/07/10 09:13:17;;;;;;;9.43;2.00;;;;;;;-146.64;89.59;37091.25;5089242;28;20030;-74
2022/07/10 09:15:48;;;;;;;5.87;1.93;;;;;;;-146.64;86.36;37076.94;5086284;28;20034;-75
2022/07/10 09:18:19;;;;;;;3.53;1.30;;;;;;;-146.64;88.26;37275.34;5074554;28;20028;-75
2022/07/10 09:20:46;;;;;;;4.18;1.63;;;;;;;-146.64;86.82;37117.84;5102255;28;20035;-75
2022/07/10 09:23:22;;;;;;;5.82;1.40;;;;;;;-146.64;85.60;37117.84;5104026;28;20519;-76
2022/07/10 09:25:50;;;;;;;4.32;1.30;;;;;;;-146.64;86.14;37144.44;5088370;28;20080;-74
2022/07/10 09:28:20;;;;;;;3.28;1.48;;;;;;;-146.64;86.66;37060.56;5086639;28;20028;-75
2022/07/10 09:30:46;;;;;;;5.38;2.00;;;;;;;-146.64;85.38;37216.03;5084061;28;20123;-74
2022/07/10 09:33:19;;;;;;;6.10;1.58;;;;;;;-146.64;85.45;37081.03;5084348;28;20142;-74
2022/07/10 09:36:07;;;;;;;4.93;1.52;;;;;;;-146.64;83.77;37070.78;5077485;28;20035;-74
2022/07/10 09:38:44;;;;;;;;;;;;;;;-146.64;82.87;37119.88;5085149;28;20032;-74
2022/07/10 09:41:17;;;;;;;3.45;1.55;;;;;;;-146.64;84.79;37160.78;5103801;28;20432;-75
2022/07/10 09:43:44;;;;;;;2.53;1.50;;;;;;;-146.64;83.13;37058.53;5084368;28;20562;-74
2022/07/10 09:46:09;;;;;;;7.07;1.23;;;;;;;-146.64;80.88;37038.06;5097346;28;20035;-77
2022/07/10 09:48:35;;;;;;;7.27;1.53;;;;;;;-146.64;80.00;37062.63;5082521;28;20038;-75
2022/07/10 09:51:01;;;;;;;3.23;0.93;;;;;;;-146.64;81.42;36819.22;5098831;28;20040;-75
2022/07/10 09:53:26;;;;;;;4.72;1.27;;;;;;;-146.64;82.01;36997.16;5065331;28;20020;-76
2022/07/10 09:55:51;;;;;;;5.03;1.63;;;;;;;-146.64;81.29;37050.34;5079367;28;20035;-76
2022/07/10 09:58:18;;;;;;;5.47;1.40;;;;;;;-146.64;81.61;37011.47;5076153;28;20479;-74
2022/07/10 10:00:46;;;;;;;4.38;1.23;;;;;;;-146.64;79.03;36943.97;5083167;28;20022;-76
2022/07/10 10:03:11;;;;;;;4.25;1.30;;;;;;;-146.64;78.24;36825.34;5082406;28;20032;-77
2022/07/10 10:05:39;;;;;;;3.77;1.63;;;;;;;-146.64;78.64;36696.50;5070787;28;20403;-76
2022/07/10 10:08:32;;;;;;;2.63;1.20;;;;;;;-146.64;79.17;36764.00;5070835;28;20111;-74
2022/07/10 10:10:58;;;;;;;4.22;1.30;;;;;;;-146.64;78.94;36870.34;5072376;28;20490;-74
2022/07/10 10:13:28;;;;;;;5.72;1.33;;;;;;;-146.64;78.18;36898.97;5066068;28;20027;-75
2022/07/10 10:15:55;;;;;;;5.03;1.20;;;;;;;-146.64;77.21;36927.63;5068098;28;20028;-74
2022/07/10 10:18:24;;;;;;;1.23;0.82;;;;;;;-146.64;77.05;36774.22;5102632;28;20028;-75
2022/07/10 10:20:52;;;;;;;3.20;1.00;;;;;;;-146.64;75.62;36723.09;5077618;28;20089;-75
2022/07/10 10:23:27;;;;;;;2.45;1.10;;;;;;;-146.64;76.75;36620.81;5078849;28;20101;-75
2022/07/10 10:25:54;;;;;;;5.95;1.38;;;;;;;-146.64;76.71;36862.16;5082762;28;20122;-74
2022/07/10 10:28:23;;;;;;;4.38;1.20;;;;;;;-146.64;78.59;37017.63;5098478;28;20100;-76
2022/07/10 10:30:50;;;;;;;4.50;1.33;;;;;;;-146.64;78.93;36886.72;5065236;28;20027;-76
2022/07/10 10:33:34;;;;;;;4.60;1.10;;;;;;;-146.64;77.84;36939.88;5083834;28;20020;-74
2022/07/10 10:36:03;;;;;;;2.45;1.05;;;;;;;-146.64;79.40;36943.97;5081873;28;20114;-77
2022/07/10 10:38:59;;;;;;;5.45;1.20;;;;;;;-146.64;79.68;36984.88;5082885;28;20406;-75
2022/07/10 10:41:36;;;;;;;3.60;1.50;;;;;;;-146.64;78.97;36956.25;5082582;28;20031;-75
2022/07/10 10:44:15;;;;;;;4.13;1.40;;;;;;;-146.64;77.87;36784.44;5084041;28;20084;-75
2022/07/10 10:46:50;;;;;;;5.85;1.17;;;;;;;-146.64;77.15;36712.88;5092540;28;20023;-75
2022/07/10 10:49:17;;;;;;;2.78;1.27;;;;;;;-146.64;75.22;36723.09;5085080;28;20024;-76
2022/07/10 10:52:01;;;;;;;4.45;1.25;;;;;;;-146.64;74.37;36941.94;5085478;28;20023;-75
2022/07/10 10:54:27;;;;;;;4.70;1.85;;;;;;;-146.64;75.95;36898.97;5100621;28;20035;-75
2022/07/10 10:57:14;;;;;;;4.90;1.50;;;;;;;-146.64;75.78;36917.41;5084002;28;20028;-75
2022/07/10 10:59:47;;;;;;;3.75;1.10;;;;;;;-146.64;75.29;36931.72;5084405;28;20108;-75
2022/07/10 11:02:23;;;;;;;3.20;1.35;;;;;;;-146.64;74.36;36907.16;5099632;28;20026;-76
2022/07/10 11:04:52;;;;;;;3.55;1.23;;;;;;;-146.64;72.37;36984.88;5076500;28;20455;-74
2022/07/10 11:07:55;;;;;;;2.53;1.08;;;;;;;-146.64;73.58;37009.44;5080979;28;20062;-75
2022/07/10 11:10:33;;;;;;;2.22;0.88;;;;;;;-146.64;74.61;37009.44;5089016;28;20451;-76
2022/07/10 11:13:02;;;;;;;4.78;1.20;;;;;;;-146.64;75.03;36858.06;5104242;28;20033;-75
2022/07/10 11:15:35;;;;;;;3.70;1.30;;;;;;;-146.64;73.91;36870.34;5081002;28;21058;-75
2022/07/10 11:18:07;;;;;;;3.38;1.30;;;;;;;-146.64;74.45;36917.41;5102216;28;20032;-76